sensor_id;sensor_type;location;lat;lon;timestamp;P1;durP1;ratioP1;P2;durP2;ratioP2
22983;SDS011;11658;48.908;9.140;2022-12-07T04:01:45;7.97;;;6.30;;
22983;SDS011;11658;48.908;9.140;2022-12-07T04:04:18;7.80;;;6.23;;
22983;SDS011;11658;48.908;9.140;2022-12-07T04:06:44;7.77;;;6.77;;
22983;SDS011;11658;48.908;9.140;2022-12-07T04:09:09;7.97;;;6.97;;
22983;SDS011;11658;48.908;9.140;2022-12-07T04:11:35;7.50;;;6.53;;
22983;SDS011;11658;48.908;9.140;2022-12-07T04:14:00;8.10;;;6.57;;
22983;SDS011;11658;48.908;9.140;2022-12-07T04:16:45;8.23;;;6.70;;
22983;SDS011;11658;48.908;9.140;2022-12-07T04:19:14;7.80;;;6.13;;
22983;SDS011;11658;48.908;9.140;2022-12-07T04:21:41;7.13;;;6.23;;
22983;SDS011;11658;48.908;9.140;2022-12-07T04:24:06;6.97;;;6.23;;
22983;SDS011;11658;48.908;9.140;2022-12-07T04:26:32;8.43;;;6.30;;
22983;SDS011;11658;48.908;9.140;2022-12-07T04:28:57;8.00;;;6.10;;
22983;SDS011;11658;48.908;9.140;2022-12-07T04:31:23;9.10;;;6.63;;
22983;SDS011;11658;48.908;9.140;2022-12-07T04:33:48;7.73;;;6.67;;
22983;SDS011;11658;48.908;9.140;2022-12-07T04:36:14;8.00;;;6.37;;
22983;SDS011;11658;48.908;9.140;2022-12-07T04:38:40;7.70;;;6.57;;
22983;SDS011;11658;48.908;9.140;2022-12-07T04:41:06;7.07;;;5.83;;
22983;SDS011;11658;48.908;9.140;2022-12-07T04:43:33;7.40;;;6.20;;
22983;SDS011;11658;48.908;9.140;2022-12-07T04:45:59;6.93;;;5.87;;
22983;SDS011;11658;48.908;9.140;2022-12-07T04:48:25;7.93;;;6.37;;
22983;SDS011;11658;48.908;9.140;2022-12-07T04:50:50;7.30;;;6.23;;
22983;SDS011;11658;48.908;9.140;2022-12-07T04:53:16;8.33;;;6.20;;
22983;SDS011;11658;48.908;9.140;2022-12-07T04:55:42;7.07;;;6.10;;
22983;SDS011;11658;48.908;9.140;2022-12-07T04:58:08;11.03;;;5.63;;
22983;SDS011;11658;48.908;9.140;2022-12-07T05:00:34;7.07;;;5.70;;
22983;SDS011;11658;48.908;9.140;2022-12-07T05:02:59;6.00;;;5.40;;
22983;SDS011;11658;48.908;9.140;2022-12-07T05:05:25;7.03;;;5.83;;
22983;SDS011;11658;48.908;9.140;2022-12-07T05:07:50;7.00;;;6.03;;
22983;SDS011;11658;48.908;9.140;2022-12-07T05:10:16;8.57;;;6.63;;
22983;SDS011;11658;48.908;9.140;2022-12-07T05:12:42;7.43;;;6.17;;
22983;SDS011;11658;48.908;9.140;2022-12-07T05:15:07;7.83;;;6.37;;
22983;SDS011;11658;48.908;9.140;2022-12-07T05:17:33;8.50;;;6.30;;
22983;SDS011;11658;48.908;9.140;2022-12-07T05:19:59;7.30;;;5.87;;
22983;SDS011;11658;48.908;9.140;2022-12-07T05:22:24;10.67;;;6.90;;
22983;SDS011;11658;48.908;9.140;2022-12-07T05:24:53;7.60;;;5.97;;
22983;SDS011;11658;48.908;9.140;2022-12-07T05:27:19;8.00;;;6.30;;
22983;SDS011;11658;48.908;9.140;2022-12-07T05:29:45;7.83;;;6.40;;
22983;SDS011;11658;48.908;9.140;2022-12-07T05:32:10;7.07;;;5.77;;
22983;SDS011;11658;48.908;9.140;2022-12-07T05:34:36;7.83;;;6.20;;
22983;SDS011;11658;48.908;9.140;2022-12-07T05:37:02;9.60;;;6.40;;
22983;SDS011;11658;48.908;9.140;2022-12-07T05:39:27;8.80;;;6.50;;
22983;SDS011;11658;48.908;9.140;2022-12-07T05:41:53;7.97;;;6.63;;
22983;SDS011;11658;48.908;9.140;2022-12-07T05:44:37;8.50;;;6.60;;
22983;SDS011;11658;48.908;9.140;2022-12-07T05:47:03;8.00;;;6.20;;
22983;SDS011;11658;48.908;9.140;2022-12-07T05:49:29;8.83;;;7.00;;
22983;SDS011;11658;48.908;9.140;2022-12-07T05:51:54;7.83;;;6.67;;
22983;SDS011;11658;48.908;9.140;2022-12-07T05:54:20;10.63;;;6.40;;
22983;SDS011;11658;48.908;9.140;2022-12-07T05:56:46;8.30;;;6.20;;
22983;SDS011;11658;48.908;9.140;2022-12-07T05:59:11;9.40;;;6.20;;
22983;SDS011;11658;48.908;9.140;2022-12-07T06:01:57;11.50;;;6.60;;
22983;SDS011;11658;48.908;9.140;2022-12-07T06:04:23;7.90;;;6.00;;
22983;SDS011;11658;48.908;9.140;2022-12-07T06:06:50;8.00;;;6.30;;
22983;SDS011;11658;48.908;9.140;2022-12-07T06:09:16;8.07;;;5.97;;
22983;SDS011;11658;48.908;9.140;2022-12-07T06:11:43;7.97;;;5.90;;
22983;SDS011;11658;48.908;9.140;2022-12-07T06:14:27;6.87;;;5.87;;
22983;SDS011;11658;48.908;9.140;2022-12-07T06:16:53;8.97;;;7.17;;
22983;SDS011;11658;48.908;9.140;2022-12-07T06:19:19;8.17;;;7.27;;
22983;SDS011;11658;48.908;9.140;2022-12-07T06:21:44;7.83;;;6.83;;
22983;SDS011;11658;48.908;9.140;2022-12-07T06:24:13;8.47;;;7.03;;
22983;SDS011;11658;48.908;9.140;2022-12-07T06:26:40;9.23;;;6.53;;
22983;SDS011;11658;48.908;9.140;2022-12-07T06:29:06;8.33;;;6.23;;
22983;SDS011;11658;48.908;9.140;2022-12-07T06:31:32;6.70;;;5.10;;
22983;SDS011;11658;48.908;9.140;2022-12-07T06:33:58;7.47;;;5.90;;
22983;SDS011;11658;48.908;9.140;2022-12-07T06:36:24;8.33;;;6.00;;
22983;SDS011;11658;48.908;9.140;2022-12-07T06:38:50;7.30;;;5.40;;
22983;SDS011;11658;48.908;9.140;2022-12-07T06:41:15;6.30;;;4.90;;
22983;SDS011;11658;48.908;9.140;2022-12-07T06:43:41;6.90;;;5.03;;
22983;SDS011;11658;48.908;9.140;2022-12-07T06:46:07;7.60;;;5.00;;
22983;SDS011;11658;48.908;9.140;2022-12-07T06:48:33;6.90;;;4.87;;
22983;SDS011;11658;48.908;9.140;2022-12-07T06:50:58;6.10;;;5.00;;
22983;SDS011;11658;48.908;9.140;2022-12-07T06:53:24;7.53;;;4.97;;
22983;SDS011;11658;48.908;9.140;2022-12-07T06:55:50;6.13;;;4.80;;
22983;SDS011;11658;48.908;9.140;2022-12-07T06:58:16;8.10;;;5.50;;
22983;SDS011;11658;48.908;9.140;2022-12-07T07:00:43;6.23;;;4.77;;
22983;SDS011;11658;48.908;9.140;2022-12-07T07:03:09;6.57;;;5.43;;
22983;SDS011;11658;48.908;9.140;2022-12-07T07:05:34;6.33;;;5.20;;
22983;SDS011;11658;48.908;9.140;2022-12-07T07:08:00;7.60;;;5.70;;
22983;SDS011;11658;48.908;9.140;2022-12-07T07:10:26;5.57;;;4.97;;
22983;SDS011;11658;48.908;9.140;2022-12-07T07:12:52;7.93;;;5.00;;
22983;SDS011;11658;48.908;9.140;2022-12-07T07:15:17;9.67;;;5.70;;
22983;SDS011;11658;48.908;9.140;2022-12-07T07:17:43;6.43;;;5.00;;
22983;SDS011;11658;48.908;9.140;2022-12-07T07:20:09;10.10;;;6.50;;
22983;SDS011;11658;48.908;9.140;2022-12-07T07:22:35;7.93;;;6.40;;
22983;SDS011;11658;48.908;9.140;2022-12-07T07:25:00;10.37;;;5.93;;
22983;SDS011;11658;48.908;9.140;2022-12-07T07:27:26;8.20;;;6.03;;
22983;SDS011;11658;48.908;9.140;2022-12-07T07:29:52;8.93;;;5.80;;
22983;SDS011;11658;48.908;9.140;2022-12-07T07:32:17;6.60;;;5.90;;
22983;SDS011;11658;48.908;9.140;2022-12-07T07:34:43;6.57;;;5.63;;
22983;SDS011;11658;48.908;9.140;2022-12-07T07:37:08;5.93;;;4.77;;
22983;SDS011;11658;48.908;9.140;2022-12-07T07:39:35;6.90;;;5.30;;
22983;SDS011;11658;48.908;9.140;2022-12-07T07:42:01;7.30;;;5.47;;
22983;SDS011;11658;48.908;9.140;2022-12-07T07:44:26;8.07;;;6.03;;
22983;SDS011;11658;48.908;9.140;2022-12-07T07:46:52;7.33;;;6.30;;
22983;SDS011;11658;48.908;9.140;2022-12-07T07:49:18;8.40;;;7.07;;
22983;SDS011;11658;48.908;9.140;2022-12-07T07:51:43;6.83;;;5.90;;
22983;SDS011;11658;48.908;9.140;2022-12-07T07:54:09;6.27;;;5.10;;
22983;SDS011;11658;48.908;9.140;2022-12-07T07:56:34;5.37;;;4.70;;
22983;SDS011;11658;48.908;9.140;2022-12-07T07:59:00;5.27;;;4.77;;
22983;SDS011;11658;48.908;9.140;2022-12-07T08:01:26;6.87;;;4.90;;
22983;SDS011;11658;48.908;9.140;2022-12-07T08:03:51;5.37;;;4.30;;
22983;SDS011;11658;48.908;9.140;2022-12-07T08:06:17;6.03;;;4.13;;
22983;SDS011;11658;48.908;9.140;2022-12-07T08:08:42;6.87;;;4.53;;
22983;SDS011;11658;48.908;9.140;2022-12-07T08:11:08;6.57;;;4.40;;
22983;SDS011;11658;48.908;9.140;2022-12-07T08:13:35;5.17;;;3.93;;
22983;SDS011;11658;48.908;9.140;2022-12-07T08:16:05;5.13;;;4.40;;
22983;SDS011;11658;48.908;9.140;2022-12-07T08:18:37;5.87;;;4.87;;
22983;SDS011;11658;48.908;9.140;2022-12-07T08:21:04;5.80;;;4.47;;
22983;SDS011;11658;48.908;9.140;2022-12-07T08:23:30;5.23;;;4.50;;
22983;SDS011;11658;48.908;9.140;2022-12-07T08:26:02;6.80;;;5.40;;
22983;SDS011;11658;48.908;9.140;2022-12-07T08:28:29;4.90;;;4.23;;
22983;SDS011;11658;48.908;9.140;2022-12-07T08:30:59;5.37;;;3.83;;
22983;SDS011;11658;48.908;9.140;2022-12-07T08:33:25;5.23;;;4.53;;
22983;SDS011;11658;48.908;9.140;2022-12-07T08:35:51;4.90;;;4.27;;
22983;SDS011;11658;48.908;9.140;2022-12-07T08:38:17;6.40;;;4.20;;
22983;SDS011;11658;48.908;9.140;2022-12-07T08:40:42;6.07;;;4.70;;
22983;SDS011;11658;48.908;9.140;2022-12-07T08:43:08;5.50;;;4.40;;
22983;SDS011;11658;48.908;9.140;2022-12-07T08:45:33;5.40;;;4.27;;
22983;SDS011;11658;48.908;9.140;2022-12-07T08:48:07;5.77;;;4.67;;
22983;SDS011;11658;48.908;9.140;2022-12-07T08:50:37;4.97;;;4.23;;
22983;SDS011;11658;48.908;9.140;2022-12-07T08:53:03;5.30;;;4.00;;
22983;SDS011;11658;48.908;9.140;2022-12-07T08:55:30;5.10;;;4.00;;
22983;SDS011;11658;48.908;9.140;2022-12-07T08:57:57;5.20;;;3.70;;
22983;SDS011;11658;48.908;9.140;2022-12-07T09:00:24;4.37;;;3.80;;
22983;SDS011;11658;48.908;9.140;2022-12-07T09:02:50;7.30;;;5.40;;
22983;SDS011;11658;48.908;9.140;2022-12-07T09:05:16;5.00;;;4.40;;
22983;SDS011;11658;48.908;9.140;2022-12-07T09:07:43;4.40;;;3.80;;
22983;SDS011;11658;48.908;9.140;2022-12-07T09:10:11;5.47;;;3.87;;
22983;SDS011;11658;48.908;9.140;2022-12-07T09:12:36;4.70;;;3.93;;
22983;SDS011;11658;48.908;9.140;2022-12-07T09:15:02;6.27;;;3.80;;
22983;SDS011;11658;48.908;9.140;2022-12-07T09:17:28;4.33;;;3.53;;
22983;SDS011;11658;48.908;9.140;2022-12-07T09:19:57;5.03;;;3.50;;
22983;SDS011;11658;48.908;9.140;2022-12-07T09:22:23;3.90;;;3.30;;
22983;SDS011;11658;48.908;9.140;2022-12-07T09:24:48;7.33;;;3.43;;
22983;SDS011;11658;48.908;9.140;2022-12-07T09:27:14;3.43;;;2.93;;
22983;SDS011;11658;48.908;9.140;2022-12-07T09:29:41;4.30;;;3.50;;
22983;SDS011;11658;48.908;9.140;2022-12-07T09:32:06;4.57;;;3.77;;
22983;SDS011;11658;48.908;9.140;2022-12-07T09:34:32;4.57;;;3.40;;
22983;SDS011;11658;48.908;9.140;2022-12-07T09:36:58;7.00;;;4.27;;
22983;SDS011;11658;48.908;9.140;2022-12-07T09:39:27;4.27;;;3.03;;
22983;SDS011;11658;48.908;9.140;2022-12-07T09:41:53;6.27;;;3.70;;
22983;SDS011;11658;48.908;9.140;2022-12-07T09:44:23;4.00;;;3.40;;
22983;SDS011;11658;48.908;9.140;2022-12-07T09:46:50;5.50;;;3.43;;
22983;SDS011;11658;48.908;9.140;2022-12-07T09:49:18;4.47;;;3.33;;
22983;SDS011;11658;48.908;9.140;2022-12-07T09:51:46;4.07;;;3.10;;
22983;SDS011;11658;48.908;9.140;2022-12-07T09:54:12;4.20;;;3.20;;
22983;SDS011;11658;48.908;9.140;2022-12-07T09:56:42;5.37;;;3.90;;
22983;SDS011;11658;48.908;9.140;2022-12-07T09:59:09;4.83;;;3.63;;
22983;SDS011;11658;48.908;9.140;2022-12-07T10:01:41;4.27;;;3.30;;
22983;SDS011;11658;48.908;9.140;2022-12-07T10:04:18;4.60;;;3.23;;
22983;SDS011;11658;48.908;9.140;2022-12-07T10:06:46;5.50;;;3.60;;
22983;SDS011;11658;48.908;9.140;2022-12-07T10:09:13;6.20;;;3.10;;
22983;SDS011;11658;48.908;9.140;2022-12-07T10:11:58;4.87;;;3.70;;
22983;SDS011;11658;48.908;9.140;2022-12-07T10:14:29;3.90;;;3.30;;
22983;SDS011;11658;48.908;9.140;2022-12-07T10:16:56;3.77;;;3.20;;
22983;SDS011;11658;48.908;9.140;2022-12-07T10:22:02;3.40;;;2.50;;
22983;SDS011;11658;48.908;9.140;2022-12-07T10:24:34;2.40;;;2.20;;
22983;SDS011;11658;48.908;9.140;2022-12-07T10:27:02;3.43;;;2.43;;
22983;SDS011;11658;48.908;9.140;2022-12-07T10:29:31;3.27;;;2.70;;
22983;SDS011;11658;48.908;9.140;2022-12-07T10:32:00;3.27;;;2.30;;
22983;SDS011;11658;48.908;9.140;2022-12-07T10:34:30;3.23;;;2.67;;
22983;SDS011;11658;48.908;9.140;2022-12-07T10:39:43;3.60;;;3.00;;
22983;SDS011;11658;48.908;9.140;2022-12-07T10:42:25;3.60;;;2.70;;
22983;SDS011;11658;48.908;9.140;2022-12-07T10:47:51;3.70;;;3.00;;
22983;SDS011;11658;48.908;9.140;2022-12-07T10:55:56;3.83;;;3.30;;
22983;SDS011;11658;48.908;9.140;2022-12-07T11:01:10;3.90;;;3.30;;
22983;SDS011;11658;48.908;9.140;2022-12-07T11:12:28;5.23;;;3.67;;
22983;SDS011;11658;48.908;9.140;2022-12-07T11:25:56;4.93;;;4.27;;
22983;SDS011;11658;48.908;9.140;2022-12-07T11:28:35;6.83;;;4.40;;
22983;SDS011;11658;48.908;9.140;2022-12-07T11:31:09;7.30;;;5.30;;
22983;SDS011;11658;48.908;9.140;2022-12-07T11:36:22;6.57;;;4.80;;
22983;SDS011;11658;48.908;9.140;2022-12-07T11:42:09;6.43;;;4.40;;
22983;SDS011;11658;48.908;9.140;2022-12-07T11:44:53;6.70;;;5.10;;
22983;SDS011;11658;48.908;9.140;2022-12-07T11:47:45;6.93;;;5.07;;
22983;SDS011;11658;48.908;9.140;2022-12-07T11:50:25;5.40;;;4.47;;
22983;SDS011;11658;48.908;9.140;2022-12-07T12:03:41;6.63;;;4.87;;
22983;SDS011;11658;48.908;9.140;2022-12-07T12:06:14;7.63;;;4.50;;
22983;SDS011;11658;48.908;9.140;2022-12-07T12:08:45;6.07;;;4.37;;
22983;SDS011;11658;48.908;9.140;2022-12-07T12:22:28;5.33;;;4.83;;
22983;SDS011;11658;48.908;9.140;2022-12-07T12:25:02;6.30;;;4.83;;
22983;SDS011;11658;48.908;9.140;2022-12-07T12:27:41;5.90;;;4.87;;
22983;SDS011;11658;48.908;9.140;2022-12-07T12:30:33;6.87;;;5.20;;
22983;SDS011;11658;48.908;9.140;2022-12-07T12:33:13;6.07;;;5.20;;
22983;SDS011;11658;48.908;9.140;2022-12-07T12:47:38;6.47;;;5.60;;
22983;SDS011;11658;48.908;9.140;2022-12-07T12:53:12;6.60;;;5.17;;
22983;SDS011;11658;48.908;9.140;2022-12-07T12:58:29;6.87;;;5.53;;
22983;SDS011;11658;48.908;9.140;2022-12-07T13:04:00;8.83;;;5.90;;
22983;SDS011;11658;48.908;9.140;2022-12-07T13:08:54;7.07;;;6.10;;
22983;SDS011;11658;48.908;9.140;2022-12-07T13:11:29;7.13;;;5.93;;
22983;SDS011;11658;48.908;9.140;2022-12-07T13:17:08;9.20;;;6.47;;
22983;SDS011;11658;48.908;9.140;2022-12-07T13:22:28;6.97;;;5.83;;
22983;SDS011;11658;48.908;9.140;2022-12-07T13:25:10;8.83;;;5.90;;
22983;SDS011;11658;48.908;9.140;2022-12-07T13:27:48;6.73;;;5.33;;
22983;SDS011;11658;48.908;9.140;2022-12-07T13:30:22;7.67;;;6.07;;
22983;SDS011;11658;48.908;9.140;2022-12-07T13:32:52;7.77;;;6.03;;
22983;SDS011;11658;48.908;9.140;2022-12-07T13:38:03;8.47;;;6.23;;
22983;SDS011;11658;48.908;9.140;2022-12-07T13:40:39;9.97;;;6.70;;
22983;SDS011;11658;48.908;9.140;2022-12-07T13:43:19;8.73;;;6.67;;
22983;SDS011;11658;48.908;9.140;2022-12-07T13:45:44;15.47;;;9.83;;
22983;SDS011;11658;48.908;9.140;2022-12-07T13:48:24;11.67;;;8.07;;
22983;SDS011;11658;48.908;9.140;2022-12-07T13:50:57;9.00;;;6.57;;
22983;SDS011;11658;48.908;9.140;2022-12-07T13:53:24;10.83;;;8.23;;
22983;SDS011;11658;48.908;9.140;2022-12-07T13:55:53;8.40;;;6.73;;
22983;SDS011;11658;48.908;9.140;2022-12-07T13:58:18;9.40;;;7.37;;
22983;SDS011;11658;48.908;9.140;2022-12-07T14:00:44;8.40;;;6.97;;
22983;SDS011;11658;48.908;9.140;2022-12-07T14:05:39;11.33;;;8.30;;
22983;SDS011;11658;48.908;9.140;2022-12-07T14:18:49;20.70;;;10.93;;
22983;SDS011;11658;48.908;9.140;2022-12-07T14:21:16;10.93;;;7.77;;
22983;SDS011;11658;48.908;9.140;2022-12-07T14:23:44;9.53;;;7.30;;
22983;SDS011;11658;48.908;9.140;2022-12-07T14:26:14;11.27;;;8.07;;
22983;SDS011;11658;48.908;9.140;2022-12-07T14:28:46;11.67;;;7.90;;
22983;SDS011;11658;48.908;9.140;2022-12-07T14:31:17;9.47;;;7.30;;
22983;SDS011;11658;48.908;9.140;2022-12-07T14:33:46;12.40;;;8.53;;
22983;SDS011;11658;48.908;9.140;2022-12-07T14:36:12;10.73;;;7.70;;
22983;SDS011;11658;48.908;9.140;2022-12-07T14:38:39;8.37;;;6.80;;
22983;SDS011;11658;48.908;9.140;2022-12-07T14:41:06;10.60;;;7.00;;
22983;SDS011;11658;48.908;9.140;2022-12-07T14:43:57;8.63;;;6.67;;
22983;SDS011;11658;48.908;9.140;2022-12-07T14:46:22;10.77;;;8.00;;
22983;SDS011;11658;48.908;9.140;2022-12-07T14:48:48;8.70;;;7.00;;
22983;SDS011;11658;48.908;9.140;2022-12-07T14:51:14;9.43;;;7.33;;
22983;SDS011;11658;48.908;9.140;2022-12-07T14:53:42;8.97;;;7.13;;
22983;SDS011;11658;48.908;9.140;2022-12-07T14:56:11;10.60;;;7.10;;
22983;SDS011;11658;48.908;9.140;2022-12-07T14:58:37;9.70;;;7.20;;
22983;SDS011;11658;48.908;9.140;2022-12-07T15:01:02;7.53;;;6.00;;
22983;SDS011;11658;48.908;9.140;2022-12-07T15:03:28;9.27;;;6.20;;
22983;SDS011;11658;48.908;9.140;2022-12-07T15:05:54;7.50;;;5.50;;
22983;SDS011;11658;48.908;9.140;2022-12-07T15:08:20;6.37;;;5.03;;
22983;SDS011;11658;48.908;9.140;2022-12-07T15:10:45;7.37;;;5.37;;
22983;SDS011;11658;48.908;9.140;2022-12-07T15:13:11;6.33;;;5.63;;
22983;SDS011;11658;48.908;9.140;2022-12-07T15:15:55;7.53;;;6.53;;
22983;SDS011;11658;48.908;9.140;2022-12-07T15:18:21;8.73;;;6.93;;
22983;SDS011;11658;48.908;9.140;2022-12-07T15:20:48;10.40;;;8.00;;
22983;SDS011;11658;48.908;9.140;2022-12-07T15:23:14;10.13;;;7.80;;
22983;SDS011;11658;48.908;9.140;2022-12-07T15:25:40;12.30;;;8.43;;
22983;SDS011;11658;48.908;9.140;2022-12-07T15:28:10;10.60;;;8.00;;
22983;SDS011;11658;48.908;9.140;2022-12-07T15:30:42;11.33;;;8.17;;
22983;SDS011;11658;48.908;9.140;2022-12-07T15:33:09;11.00;;;8.40;;
22983;SDS011;11658;48.908;9.140;2022-12-07T15:35:42;11.73;;;8.43;;
22983;SDS011;11658;48.908;9.140;2022-12-07T15:38:09;11.47;;;8.10;;
22983;SDS011;11658;48.908;9.140;2022-12-07T15:40:35;12.73;;;7.40;;
22983;SDS011;11658;48.908;9.140;2022-12-07T15:43:01;10.23;;;7.63;;
22983;SDS011;11658;48.908;9.140;2022-12-07T15:45:27;11.83;;;8.60;;
22983;SDS011;11658;48.908;9.140;2022-12-07T15:47:53;10.87;;;8.13;;
22983;SDS011;11658;48.908;9.140;2022-12-07T15:50:20;11.13;;;8.30;;
22983;SDS011;11658;48.908;9.140;2022-12-07T15:52:46;11.03;;;8.70;;
22983;SDS011;11658;48.908;9.140;2022-12-07T15:55:13;11.33;;;8.03;;
22983;SDS011;11658;48.908;9.140;2022-12-07T15:57:38;10.73;;;8.13;;
22983;SDS011;11658;48.908;9.140;2022-12-07T16:00:05;10.60;;;8.20;;
22983;SDS011;11658;48.908;9.140;2022-12-07T16:02:33;11.70;;;7.97;;
22983;SDS011;11658;48.908;9.140;2022-12-07T16:04:58;11.97;;;8.57;;
22983;SDS011;11658;48.908;9.140;2022-12-07T16:07:24;11.27;;;8.10;;
22983;SDS011;11658;48.908;9.140;2022-12-07T16:09:50;11.77;;;8.17;;
22983;SDS011;11658;48.908;9.140;2022-12-07T16:12:16;9.03;;;7.17;;
22983;SDS011;11658;48.908;9.140;2022-12-07T16:14:41;10.30;;;7.33;;
22983;SDS011;11658;48.908;9.140;2022-12-07T16:17:08;10.43;;;7.67;;
22983;SDS011;11658;48.908;9.140;2022-12-07T16:19:35;10.53;;;7.73;;
22983;SDS011;11658;48.908;9.140;2022-12-07T16:22:02;10.23;;;7.90;;
22983;SDS011;11658;48.908;9.140;2022-12-07T16:24:28;10.03;;;7.67;;
22983;SDS011;11658;48.908;9.140;2022-12-07T16:26:54;11.20;;;8.47;;
22983;SDS011;11658;48.908;9.140;2022-12-07T16:29:20;9.97;;;8.20;;
22983;SDS011;11658;48.908;9.140;2022-12-07T16:31:47;11.80;;;7.87;;
22983;SDS011;11658;48.908;9.140;2022-12-07T16:34:14;12.30;;;8.10;;
22983;SDS011;11658;48.908;9.140;2022-12-07T16:36:39;9.37;;;7.23;;
22983;SDS011;11658;48.908;9.140;2022-12-07T16:39:05;10.63;;;8.50;;
22983;SDS011;11658;48.908;9.140;2022-12-07T16:41:31;10.23;;;7.77;;
22983;SDS011;11658;48.908;9.140;2022-12-07T16:43:59;12.00;;;8.17;;
22983;SDS011;11658;48.908;9.140;2022-12-07T16:46:29;12.47;;;8.80;;
22983;SDS011;11658;48.908;9.140;2022-12-07T16:48:56;11.80;;;8.40;;
22983;SDS011;11658;48.908;9.140;2022-12-07T16:51:21;11.90;;;9.10;;
22983;SDS011;11658;48.908;9.140;2022-12-07T16:53:47;10.13;;;8.03;;
22983;SDS011;11658;48.908;9.140;2022-12-07T16:56:13;12.23;;;9.03;;
22983;SDS011;11658;48.908;9.140;2022-12-07T16:58:41;12.60;;;8.63;;
22983;SDS011;11658;48.908;9.140;2022-12-07T17:01:14;12.53;;;8.20;;
22983;SDS011;11658;48.908;9.140;2022-12-07T17:03:42;10.70;;;7.60;;
22983;SDS011;11658;48.908;9.140;2022-12-07T17:06:13;9.20;;;7.37;;
22983;SDS011;11658;48.908;9.140;2022-12-07T17:08:40;9.70;;;7.33;;
22983;SDS011;11658;48.908;9.140;2022-12-07T17:11:10;9.97;;;7.70;;
22983;SDS011;11658;48.908;9.140;2022-12-07T17:13:40;10.00;;;7.50;;
22983;SDS011;11658;48.908;9.140;2022-12-07T17:16:24;10.40;;;7.47;;
22983;SDS011;11658;48.908;9.140;2022-12-07T17:18:50;9.40;;;7.77;;
22983;SDS011;11658;48.908;9.140;2022-12-07T17:21:16;9.03;;;7.20;;
22983;SDS011;11658;48.908;9.140;2022-12-07T17:23:41;10.10;;;7.10;;
22983;SDS011;11658;48.908;9.140;2022-12-07T17:26:08;8.97;;;7.20;;
22983;SDS011;11658;48.908;9.140;2022-12-07T17:28:37;11.67;;;7.03;;
22983;SDS011;11658;48.908;9.140;2022-12-07T17:31:07;8.50;;;6.40;;
22983;SDS011;11658;48.908;9.140;2022-12-07T17:33:35;8.93;;;6.40;;
22983;SDS011;11658;48.908;9.140;2022-12-07T17:36:01;9.33;;;6.73;;
22983;SDS011;11658;48.908;9.140;2022-12-07T17:38:45;8.33;;;6.33;;
22983;SDS011;11658;48.908;9.140;2022-12-07T17:41:13;9.03;;;6.97;;
22983;SDS011;11658;48.908;9.140;2022-12-07T17:44:01;9.77;;;7.03;;
22983;SDS011;11658;48.908;9.140;2022-12-07T17:46:27;9.97;;;6.57;;
22983;SDS011;11658;48.908;9.140;2022-12-07T17:48:56;7.67;;;6.17;;
22983;SDS011;11658;48.908;9.140;2022-12-07T17:51:22;8.50;;;6.50;;
22983;SDS011;11658;48.908;9.140;2022-12-07T17:54:07;8.53;;;6.93;;
22983;SDS011;11658;48.908;9.140;2022-12-07T17:56:33;8.67;;;6.17;;
22983;SDS011;11658;48.908;9.140;2022-12-07T17:58:59;8.60;;;6.67;;
22983;SDS011;11658;48.908;9.140;2022-12-07T18:01:25;7.63;;;6.10;;
22983;SDS011;11658;48.908;9.140;2022-12-07T18:03:50;8.13;;;6.30;;
22983;SDS011;11658;48.908;9.140;2022-12-07T18:06:16;9.03;;;6.00;;
22983;SDS011;11658;48.908;9.140;2022-12-07T18:08:42;7.33;;;6.20;;
22983;SDS011;11658;48.908;9.140;2022-12-07T18:11:07;7.63;;;6.20;;
22983;SDS011;11658;48.908;9.140;2022-12-07T18:13:33;6.63;;;5.80;;
22983;SDS011;11658;48.908;9.140;2022-12-07T18:16:23;7.87;;;5.93;;
22983;SDS011;11658;48.908;9.140;2022-12-07T18:18:49;7.40;;;5.30;;
22983;SDS011;11658;48.908;9.140;2022-12-07T18:21:19;6.33;;;5.33;;
22983;SDS011;11658;48.908;9.140;2022-12-07T18:23:50;7.93;;;5.80;;
22983;SDS011;11658;48.908;9.140;2022-12-07T18:26:17;6.93;;;5.40;;
22983;SDS011;11658;48.908;9.140;2022-12-07T18:28:44;7.00;;;5.47;;
22983;SDS011;11658;48.908;9.140;2022-12-07T18:31:10;6.60;;;5.80;;
22983;SDS011;11658;48.908;9.140;2022-12-07T18:33:39;5.97;;;5.27;;
22983;SDS011;11658;48.908;9.140;2022-12-07T18:36:06;6.73;;;5.40;;
22983;SDS011;11658;48.908;9.140;2022-12-07T18:38:32;7.63;;;5.63;;
22983;SDS011;11658;48.908;9.140;2022-12-07T18:40:59;5.67;;;4.80;;
22983;SDS011;11658;48.908;9.140;2022-12-07T18:43:26;7.67;;;5.57;;
22983;SDS011;11658;48.908;9.140;2022-12-07T18:45:51;5.93;;;4.87;;
22983;SDS011;11658;48.908;9.140;2022-12-07T18:48:18;5.93;;;5.17;;
22983;SDS011;11658;48.908;9.140;2022-12-07T18:50:45;5.30;;;4.53;;
22983;SDS011;11658;48.908;9.140;2022-12-07T18:53:12;6.33;;;5.27;;
22983;SDS011;11658;48.908;9.140;2022-12-07T18:55:38;7.27;;;4.80;;
22983;SDS011;11658;48.908;9.140;2022-12-07T18:58:04;6.07;;;4.83;;
22983;SDS011;11658;48.908;9.140;2022-12-07T19:00:31;5.67;;;4.83;;
22983;SDS011;11658;48.908;9.140;2022-12-07T19:02:58;5.43;;;4.27;;
22983;SDS011;11658;48.908;9.140;2022-12-07T19:05:24;5.13;;;4.37;;
22983;SDS011;11658;48.908;9.140;2022-12-07T19:07:50;5.40;;;4.77;;
22983;SDS011;11658;48.908;9.140;2022-12-07T19:10:16;5.50;;;4.40;;
22983;SDS011;11658;48.908;9.140;2022-12-07T19:12:42;6.03;;;4.63;;
22983;SDS011;11658;48.908;9.140;2022-12-07T19:15:09;6.63;;;5.17;;
22983;SDS011;11658;48.908;9.140;2022-12-07T19:17:36;6.47;;;5.23;;
22983;SDS011;11658;48.908;9.140;2022-12-07T19:20:03;6.70;;;5.70;;
22983;SDS011;11658;48.908;9.140;2022-12-07T19:22:30;6.87;;;5.70;;
22983;SDS011;11658;48.908;9.140;2022-12-07T19:24:55;7.53;;;6.17;;
22983;SDS011;11658;48.908;9.140;2022-12-07T19:27:21;7.63;;;6.07;;
22983;SDS011;11658;48.908;9.140;2022-12-07T19:29:47;7.53;;;6.00;;
22983;SDS011;11658;48.908;9.140;2022-12-07T19:32:14;7.97;;;6.20;;
22983;SDS011;11658;48.908;9.140;2022-12-07T19:34:41;7.97;;;6.43;;
22983;SDS011;11658;48.908;9.140;2022-12-07T19:37:08;6.43;;;5.67;;
22983;SDS011;11658;48.908;9.140;2022-12-07T19:39:35;6.43;;;4.93;;
22983;SDS011;11658;48.908;9.140;2022-12-07T19:42:01;6.33;;;5.60;;
22983;SDS011;11658;48.908;9.140;2022-12-07T19:44:27;6.43;;;5.23;;
22983;SDS011;11658;48.908;9.140;2022-12-07T19:46:54;6.93;;;5.30;;
22983;SDS011;11658;48.908;9.140;2022-12-07T19:49:22;5.83;;;4.90;;
22983;SDS011;11658;48.908;9.140;2022-12-07T19:51:50;6.37;;;5.20;;
22983;SDS011;11658;48.908;9.140;2022-12-07T19:54:18;9.80;;;5.90;;
22983;SDS011;11658;48.908;9.140;2022-12-07T19:56:45;7.50;;;5.63;;
22983;SDS011;11658;48.908;9.140;2022-12-07T19:59:12;7.33;;;6.00;;
22983;SDS011;11658;48.908;9.140;2022-12-07T20:01:39;8.23;;;6.30;;
22983;SDS011;11658;48.908;9.140;2022-12-07T20:04:07;10.07;;;6.70;;
22983;SDS011;11658;48.908;9.140;2022-12-07T20:06:35;9.37;;;6.97;;
22983;SDS011;11658;48.908;9.140;2022-12-07T20:09:01;10.30;;;7.77;;
22983;SDS011;11658;48.908;9.140;2022-12-07T20:11:27;9.87;;;6.97;;
22983;SDS011;11658;48.908;9.140;2022-12-07T20:14:12;9.37;;;6.20;;
22983;SDS011;11658;48.908;9.140;2022-12-07T20:16:38;12.47;;;8.40;;
22983;SDS011;11658;48.908;9.140;2022-12-07T20:19:04;8.17;;;6.53;;
22983;SDS011;11658;48.908;9.140;2022-12-07T20:21:33;8.80;;;6.50;;
22983;SDS011;11658;48.908;9.140;2022-12-07T20:24:00;8.90;;;6.10;;
22983;SDS011;11658;48.908;9.140;2022-12-07T20:26:26;7.57;;;6.40;;
22983;SDS011;11658;48.908;9.140;2022-12-07T20:28:52;6.80;;;6.10;;
22983;SDS011;11658;48.908;9.140;2022-12-07T20:31:18;8.43;;;6.60;;
22983;SDS011;11658;48.908;9.140;2022-12-07T20:33:44;7.13;;;6.37;;
22983;SDS011;11658;48.908;9.140;2022-12-07T20:36:11;8.50;;;6.60;;
22983;SDS011;11658;48.908;9.140;2022-12-07T20:38:38;8.10;;;6.60;;
22983;SDS011;11658;48.908;9.140;2022-12-07T20:41:05;8.20;;;6.53;;